Juan Atucha, Argentina
Current Conditions -  °F | °C
As of 11:00 AM on Saturday 22 Nov 2014 (Local Time) from SAEZ Reporting Station
Scattered Clouds Scattered Clouds  
Wind Chill: 68°   Ceiling: Unl
Heat Index: 68°   Visibility: 6mi
Dew Point: 54°   Wind: 10mph
Humidity: 60%   Direction: 210°SSW
Pressure: 29.91"   Gusts: NA
Location:  35.48°S, 59.34°W
Report Text: SAEZ 221400Z 21009KT 160V250 9999 FEW035 SCT042 20/12 Q1013
Loading
Personal Weather Stations






























Interactive Weather Map New forecast layout! Learn more

10-Day Weather Forecast

Advertisements
Track Severe Weather on mobile